Lambert St Louis International Airport
KSTL : now visible

Airfield :











YOU CAN JOIN US ON...

 
LOGIN :

Register | Disclaimer

   EN    FR    IT 

 









Legend :    VFR   Marginal VFR   IFR   Intensive IFR   Very Intensive IFR
Visi :
Ceiling :
>= 8 km
>= 3000ft
5 to 8 km
1000 to 3000 ft
1500m to 5 km
500 to 1000 ft
800 to 1500m
200 to 500 ft
< 800m
< 200 ft
Symbols :   Thunderstorms  Fog  Heavy snow  Heavy precipitations  Wind > 20 kt






- Airport Elevation : 618 ft
- IATA code : STL


KSTL - Lambert St Louis International

CURRENT METAR :
  • 142109Z 32010KT 10SM OVC015 00/M03 A2989 RMK AO2 T00001028 $

EXPIRED METARs :
  • 142051Z 33013KT 10SM OVC013 00/M03 A2988 RMK AO2 SLP127 60000 T00001028 53008 $
  • 142016Z 31009G19KT 10SM OVC012 01/M02 A2987 RMK AO2 T00061022 $
  • 141951Z 29011KT 10SM OVC010 01/M02 A2986 RMK AO2 SLP122 T00061022 $
  • 141918Z 31010KT 10SM OVC011 01/M02 A2985 RMK AO2 T00061017 $
  • 141851Z 32012KT 9SM OVC012 01/M02 A2985 RMK AO2 DZE05 SLP114 P0000 T00061017 $
  • 141833Z 33011KT 7SM OVC012 01/M02 A2984 RMK AO2 DZE05 P0000 T00111017 $
  • 141821Z 33010KT 5SM BR OVC009 01/M02 A2984 RMK AO2 DZE05 P0000 T00061017 $

TAF KSTL
Valid from the 14 at 21:00 until the 16 at 00:00 UTC


142103Z 1421/1524 32010KT P6SM OVC015
FM150500 VRB04KT P6SM OVC015
FM150800 VRB04KT P6SM BKN070
FM151900 09006KT 2SM -SN OVC020



MET'MAP, your aeronautical weather chart ! - Copyright ORBIFLY December 2007 - Disclaimer

ORBIFLY MET'MAP TEAM :

Programming & Development : Alexandra Zaïnal
Concept & original design : Baudouin d'Aumeries
Assistance for programming : Marc-Olivier Méhu
Technical & hardware support : Manuel Goepfert

Contact : metmap@orbifly.com




SOURCES & CREDITS :

   NOAA       Earth
Advisory